Aviation Digital Data Service (ADDS)

Output produced by METARs form (0455 UTC 16 February 2019)
found at http://www.aviationweather.gov/metar/data/
 
METAR text: CYLW 160451Z AUTO 17003KT 9SM SCT010 OVC026 M00/M02 A2969 RMK SLP077
Conditions at: CYLW (KELOWNA APT , BC, CA) observed 0451 UTC 16 February 2019
Temperature: 0.0°C (32°F)
Dewpoint: -2.0°C (28°F) [RH = 86%]
Pressure (altimeter): 29.69 inches Hg (1005.5 mb)
[Sea-level pressure: 1007.7 mb]
Winds: from the S (170 degrees) at 3 MPH (3 knots; 1.5 m/s)
Visibility: 9 miles (14 km)
Ceiling: 2600 feet AGL
Clouds: scattered clouds at 1000 feet AGL
overcast cloud deck at 2600 feet AGL
Weather: no significant weather observed at this time

METAR text: CYLW 160432Z AUTO 15003KT 9SM BKN010 OVC028 M00/M01 A2969 RMK SLP076
Conditions at: CYLW (KELOWNA APT , BC, CA) observed 0432 UTC 16 February 2019
Temperature: 0.0°C (32°F)
Dewpoint: -1.0°C (30°F) [RH = 93%]
Pressure (altimeter): 29.69 inches Hg (1005.5 mb)
[Sea-level pressure: 1007.6 mb]
Winds: from the SSE (150 degrees) at 3 MPH (3 knots; 1.5 m/s)
Visibility: 9 miles (14 km)
Ceiling: 1000 feet AGL
Clouds: broken clouds at 1000 feet AGL
overcast cloud deck at 2800 feet AGL
Weather: no significant weather observed at this time

METAR text: CYLW 160406Z AUTO 16003KT 9SM BKN012 OVC028 M00/M01 A2969 RMK SLP075
Conditions at: CYLW (KELOWNA APT , BC, CA) observed 0406 UTC 16 February 2019
Temperature: 0.0°C (32°F)
Dewpoint: -1.0°C (30°F) [RH = 93%]
Pressure (altimeter): 29.69 inches Hg (1005.5 mb)
[Sea-level pressure: 1007.5 mb]
Winds: from the SSE (160 degrees) at 3 MPH (3 knots; 1.5 m/s)
Visibility: 9 miles (14 km)
Ceiling: 1200 feet AGL
Clouds: broken clouds at 1200 feet AGL
overcast cloud deck at 2800 feet AGL
Weather: no significant weather observed at this time

METAR text: CYLW 160400Z AUTO 17004KT 9SM SCT012 OVC028 M01/M01 A2969 RMK SLP075
Conditions at: CYLW (KELOWNA APT , BC, CA) observed 0400 UTC 16 February 2019
Temperature: -1.0°C (30°F)
Dewpoint: -1.0°C (30°F) [RH = 100%]
Pressure (altimeter): 29.69 inches Hg (1005.5 mb)
[Sea-level pressure: 1007.5 mb]
Winds: from the S (170 degrees) at 5 MPH (4 knots; 2.1 m/s)
Visibility: 9 miles (14 km)
Ceiling: 2800 feet AGL
Clouds: scattered clouds at 1200 feet AGL
overcast cloud deck at 2800 feet AGL
Weather: no significant weather observed at this time

METAR text: CYLW 160319Z AUTO 15004KT 9SM SCT016 BKN028 BKN032 OVC055 M00/M01 A2968 RMK SLP072
Conditions at: CYLW (KELOWNA APT , BC, CA) observed 0319 UTC 16 February 2019
Temperature: 0.0°C (32°F)
Dewpoint: -1.0°C (30°F) [RH = 93%]
Pressure (altimeter): 29.68 inches Hg (1005.2 mb)
[Sea-level pressure: 1007.2 mb]
Winds: from the SSE (150 degrees) at 5 MPH (4 knots; 2.1 m/s)
Visibility: 9 miles (14 km)
Ceiling: 2800 feet AGL
Clouds: scattered clouds at 1600 feet AGL
broken clouds at 2800 feet AGL
broken clouds at 3200 feet AGL
overcast cloud deck at 5500 feet AGL
Weather: no significant weather observed at this time

METAR text: CYLW 160300Z AUTO 17002KT 9SM BKN016 BKN028 OVC032 M01/M02 A2967 RMK SLP072
Conditions at: CYLW (KELOWNA APT , BC, CA) observed 0300 UTC 16 February 2019
Temperature: -1.0°C (30°F)
Dewpoint: -2.0°C (28°F) [RH = 93%]
Pressure (altimeter): 29.67 inches Hg (1004.8 mb)
[Sea-level pressure: 1007.2 mb]
Winds: from the S (170 degrees) at 2 MPH (2 knots; 1.0 m/s)
Visibility: 9 miles (14 km)
Ceiling: 1600 feet AGL
Clouds: broken clouds at 1600 feet AGL
broken clouds at 2800 feet AGL
overcast cloud deck at 3200 feet AGL
Weather: no significant weather observed at this time

METAR text: CYLW 160254Z AUTO 15003KT 9SM BKN016 OVC032 M01/M01 A2967 RMK SLP072
Conditions at: CYLW (KELOWNA APT , BC, CA) observed 0254 UTC 16 February 2019
Temperature: -1.0°C (30°F)
Dewpoint: -1.0°C (30°F) [RH = 100%]
Pressure (altimeter): 29.67 inches Hg (1004.8 mb)
[Sea-level pressure: 1007.2 mb]
Winds: from the SSE (150 degrees) at 3 MPH (3 knots; 1.5 m/s)
Visibility: 9 miles (14 km)
Ceiling: 1600 feet AGL
Clouds: broken clouds at 1600 feet AGL
overcast cloud deck at 3200 feet AGL
Weather: no significant weather observed at this time

METAR text: CYLW 160242Z AUTO 16004KT 9SM -SN BKN016 BKN050 OVC055 M01/M02 A2967 RMK SLP072
Conditions at: CYLW (KELOWNA APT , BC, CA) observed 0242 UTC 16 February 2019
Temperature: -1.0°C (30°F)
Dewpoint: -2.0°C (28°F) [RH = 93%]
Pressure (altimeter): 29.67 inches Hg (1004.8 mb)
[Sea-level pressure: 1007.2 mb]
Winds: from the SSE (160 degrees) at 5 MPH (4 knots; 2.1 m/s)
Visibility: 9 miles (14 km)
Ceiling: 1600 feet AGL
Clouds: broken clouds at 1600 feet AGL
broken clouds at 5000 feet AGL
overcast cloud deck at 5500 feet AGL
Weather: -SN  (light snow)

METAR text: CYLW 160232Z AUTO 17003KT 9SM BKN016 BKN037 OVC048 M01/M02 A2967 RMK SLP071
Conditions at: CYLW (KELOWNA APT , BC, CA) observed 0232 UTC 16 February 2019
Temperature: -1.0°C (30°F)
Dewpoint: -2.0°C (28°F) [RH = 93%]
Pressure (altimeter): 29.67 inches Hg (1004.8 mb)
[Sea-level pressure: 1007.1 mb]
Winds: from the S (170 degrees) at 3 MPH (3 knots; 1.5 m/s)
Visibility: 9 miles (14 km)
Ceiling: 1600 feet AGL
Clouds: broken clouds at 1600 feet AGL
broken clouds at 3700 feet AGL
overcast cloud deck at 4800 feet AGL
Weather: no significant weather observed at this time

METAR text: CYLW 160227Z AUTO 17002KT 9SM SCT016 SCT029 SCT035 OVC046 M01/M02 A2967 RMK SLP070
Conditions at: CYLW (KELOWNA APT , BC, CA) observed 0227 UTC 16 February 2019
Temperature: -1.0°C (30°F)
Dewpoint: -2.0°C (28°F) [RH = 93%]
Pressure (altimeter): 29.67 inches Hg (1004.8 mb)
[Sea-level pressure: 1007.0 mb]
Winds: from the S (170 degrees) at 2 MPH (2 knots; 1.0 m/s)
Visibility: 9 miles (14 km)
Ceiling: 4600 feet AGL
Clouds: scattered clouds at 1600 feet AGL
scattered clouds at 2900 feet AGL
scattered clouds at 3500 feet AGL
overcast cloud deck at 4600 feet AGL
Weather: no significant weather observed at this time

METAR text: CYLW 160210Z AUTO 15003KT 6SM -SN FEW017 OVC035 M01/M01 A2967 RMK SLP069
Conditions at: CYLW (KELOWNA APT , BC, CA) observed 0210 UTC 16 February 2019
Temperature: -1.0°C (30°F)
Dewpoint: -1.0°C (30°F) [RH = 100%]
Pressure (altimeter): 29.67 inches Hg (1004.8 mb)
[Sea-level pressure: 1006.9 mb]
Winds: from the SSE (150 degrees) at 3 MPH (3 knots; 1.5 m/s)
Visibility: 6 miles (10 km)
Ceiling: 3500 feet AGL
Clouds: few clouds at 1700 feet AGL
overcast cloud deck at 3500 feet AGL
Weather: -SN  (light snow)

METAR text: CYLW 160200Z AUTO 16003KT 4SM -SN FEW017 SCT027 OVC036 M01/M01 A2966 RMK SLP068
Conditions at: CYLW (KELOWNA APT , BC, CA) observed 0200 UTC 16 February 2019
Temperature: -1.0°C (30°F)
Dewpoint: -1.0°C (30°F) [RH = 100%]
Pressure (altimeter): 29.66 inches Hg (1004.5 mb)
[Sea-level pressure: 1006.8 mb]
Winds: from the SSE (160 degrees) at 3 MPH (3 knots; 1.5 m/s)
Visibility: 4 miles ( 6 km)
Ceiling: 3600 feet AGL
Clouds: few clouds at 1700 feet AGL
scattered clouds at 2700 feet AGL
overcast cloud deck at 3600 feet AGL
Weather: -SN  (light snow)

METAR text: CYLW 160157Z AUTO 16004KT 5SM -SN FEW017 SCT027 OVC036 M01/M01 A2966 RMK SLP068
Conditions at: CYLW (KELOWNA APT , BC, CA) observed 0157 UTC 16 February 2019
Temperature: -1.0°C (30°F)
Dewpoint: -1.0°C (30°F) [RH = 100%]
Pressure (altimeter): 29.66 inches Hg (1004.5 mb)
[Sea-level pressure: 1006.8 mb]
Winds: from the SSE (160 degrees) at 5 MPH (4 knots; 2.1 m/s)
Visibility: 5 miles ( 8 km)
Ceiling: 3600 feet AGL
Clouds: few clouds at 1700 feet AGL
scattered clouds at 2700 feet AGL
overcast cloud deck at 3600 feet AGL
Weather: -SN  (light snow)

METAR text: CYLW 160108Z AUTO 12003KT 9SM -SN OVC034 M00/M02 A2966 RMK SLP065
Conditions at: CYLW (KELOWNA APT , BC, CA) observed 0108 UTC 16 February 2019
Temperature: 0.0°C (32°F)
Dewpoint: -2.0°C (28°F) [RH = 86%]
Pressure (altimeter): 29.66 inches Hg (1004.5 mb)
[Sea-level pressure: 1006.5 mb]
Winds: from the ESE (120 degrees) at 3 MPH (3 knots; 1.5 m/s)
Visibility: 9 miles (14 km)
Ceiling: 3400 feet AGL
Clouds: overcast cloud deck at 3400 feet AGL
Weather: -SN  (light snow)

METAR text: CYLW 160100Z AUTO 13004KT 9SM OVC034 M01/M02 A2966 RMK SLP065
Conditions at: CYLW (KELOWNA APT , BC, CA) observed 0100 UTC 16 February 2019
Temperature: -1.0°C (30°F)
Dewpoint: -2.0°C (28°F) [RH = 93%]
Pressure (altimeter): 29.66 inches Hg (1004.5 mb)
[Sea-level pressure: 1006.5 mb]
Winds: from the SE (130 degrees) at 5 MPH (4 knots; 2.1 m/s)
Visibility: 9 miles (14 km)
Ceiling: 3400 feet AGL
Clouds: overcast cloud deck at 3400 feet AGL
Weather: no significant weather observed at this time

METAR text: CYLW 160000Z AUTO 19005KT 9SM SCT050 OVC070 M01/M02 A2964 RMK SLP061
Conditions at: CYLW (KELOWNA APT , BC, CA) observed 0000 UTC 16 February 2019
Temperature: -1.0°C (30°F)
Dewpoint: -2.0°C (28°F) [RH = 93%]
Pressure (altimeter): 29.64 inches Hg (1003.8 mb)
[Sea-level pressure: 1006.1 mb]
Winds: from the S (190 degrees) at 6 MPH (5 knots; 2.6 m/s)
Visibility: 9 miles (14 km)
Ceiling: 7000 feet AGL
Clouds: scattered clouds at 5000 feet AGL
overcast cloud deck at 7000 feet AGL
Weather: no significant weather observed at this time

METAR text: CYLW 152300Z AUTO 18003KT 160V220 9SM BKN070 BKN100 M00/M03 A2963 RMK SLP056
Conditions at: CYLW (KELOWNA APT , BC, CA) observed 2300 UTC 15 February 2019
Temperature: 0.0°C (32°F)
Dewpoint: -3.0°C (27°F) [RH = 80%]
Pressure (altimeter): 29.63 inches Hg (1003.5 mb)
[Sea-level pressure: 1005.6 mb]
Winds: from the S (180 degrees) at 3 MPH (3 knots; 1.5 m/s)
Visibility: 9 miles (14 km)
Ceiling: 7000 feet AGL
Clouds: broken clouds at 7000 feet AGL
broken clouds at 10000 feet AGL
Weather: no significant weather observed at this time

METAR text: CYLW 152200Z AUTO 20007KT 9SM OVC070 M00/M03 A2963 RMK SLP056
Conditions at: CYLW (KELOWNA APT , BC, CA) observed 2200 UTC 15 February 2019
Temperature: 0.0°C (32°F)
Dewpoint: -3.0°C (27°F) [RH = 80%]
Pressure (altimeter): 29.63 inches Hg (1003.5 mb)
[Sea-level pressure: 1005.6 mb]
Winds: from the SSW (200 degrees) at 8 MPH (7 knots; 3.6 m/s)
Visibility: 9 miles (14 km)
Ceiling: 7000 feet AGL
Clouds: overcast cloud deck at 7000 feet AGL
Weather: no significant weather observed at this time

METAR text: CYLW 152100Z AUTO 19005KT 9SM BKN036 OVC070 M01/M03 A2962 RMK SLP055
Conditions at: CYLW (KELOWNA APT , BC, CA) observed 2100 UTC 15 February 2019
Temperature: -1.0°C (30°F)
Dewpoint: -3.0°C (27°F) [RH = 86%]
Pressure (altimeter): 29.62 inches Hg (1003.1 mb)
[Sea-level pressure: 1005.5 mb]
Winds: from the S (190 degrees) at 6 MPH (5 knots; 2.6 m/s)
Visibility: 9 miles (14 km)
Ceiling: 3600 feet AGL
Clouds: broken clouds at 3600 feet AGL
overcast cloud deck at 7000 feet AGL
Weather: no significant weather observed at this time

METAR text: CYLW 152000Z AUTO 16003KT 9SM OVC036 M02/M04 A2963 RMK SLP058
Conditions at: CYLW (KELOWNA APT , BC, CA) observed 2000 UTC 15 February 2019
Temperature: -2.0°C (28°F)
Dewpoint: -4.0°C (25°F) [RH = 86%]
Pressure (altimeter): 29.63 inches Hg (1003.5 mb)
[Sea-level pressure: 1005.8 mb]
Winds: from the SSE (160 degrees) at 3 MPH (3 knots; 1.5 m/s)
Visibility: 9 miles (14 km)
Ceiling: 3600 feet AGL
Clouds: overcast cloud deck at 3600 feet AGL
Weather: no significant weather observed at this time

METAR text: CYLW 151900Z AUTO 15002KT 9SM OVC034 M03/M04 A2962 RMK SLP057
Conditions at: CYLW (KELOWNA APT , BC, CA) observed 1900 UTC 15 February 2019
Temperature: -3.0°C (27°F)
Dewpoint: -4.0°C (25°F) [RH = 93%]
Pressure (altimeter): 29.62 inches Hg (1003.1 mb)
[Sea-level pressure: 1005.7 mb]
Winds: from the SSE (150 degrees) at 2 MPH (2 knots; 1.0 m/s)
Visibility: 9 miles (14 km)
Ceiling: 3400 feet AGL
Clouds: overcast cloud deck at 3400 feet AGL
Weather: no significant weather observed at this time

METAR text: CYLW 151800Z AUTO VRB02KT 9SM SCT025 OVC030 M04/M05 A2961 RMK SLP052
Conditions at: CYLW (KELOWNA APT , BC, CA) observed 1800 UTC 15 February 2019
Temperature: -4.0°C (25°F)
Dewpoint: -5.0°C (23°F) [RH = 93%]
Pressure (altimeter): 29.61 inches Hg (1002.8 mb)
[Sea-level pressure: 1005.2 mb]
Winds: variable direction winds at 2 MPH (2 knots; 1.0 m/s)
Visibility: 9 miles (14 km)
Ceiling: 3000 feet AGL
Clouds: scattered clouds at 2500 feet AGL
overcast cloud deck at 3000 feet AGL
Weather: no significant weather observed at this time

METAR text: CYLW 151700Z AUTO VRB02KT 9SM BKN025 OVC034 M05/M05 A2959 RMK SLP046
Conditions at: CYLW (KELOWNA APT , BC, CA) observed 1700 UTC 15 February 2019
Temperature: -5.0°C (23°F)
Dewpoint: -5.0°C (23°F) [RH = 100%]
Pressure (altimeter): 29.59 inches Hg (1002.1 mb)
[Sea-level pressure: 1004.6 mb]
Winds: variable direction winds at 2 MPH (2 knots; 1.0 m/s)
Visibility: 9 miles (14 km)
Ceiling: 2500 feet AGL
Clouds: broken clouds at 2500 feet AGL
overcast cloud deck at 3400 feet AGL
Weather: no significant weather observed at this time

METAR text: CYLW 151641Z AUTO 36002KT 9SM FEW025 OVC036 M05/M06 A2959 RMK SLP047
Conditions at: CYLW (KELOWNA APT , BC, CA) observed 1641 UTC 15 February 2019
Temperature: -5.0°C (23°F)
Dewpoint: -6.0°C (21°F) [RH = 93%]
Pressure (altimeter): 29.59 inches Hg (1002.1 mb)
[Sea-level pressure: 1004.7 mb]
Winds: from the N (360 degrees) at 2 MPH (2 knots; 1.0 m/s)
Visibility: 9 miles (14 km)
Ceiling: 3600 feet AGL
Clouds: few clouds at 2500 feet AGL
overcast cloud deck at 3600 feet AGL
Weather: no significant weather observed at this time

METAR text: CYLW 151623Z AUTO VRB02KT 6SM -SN FEW024 OVC036 M05/M06 A2958 RMK SLP043
Conditions at: CYLW (KELOWNA APT , BC, CA) observed 1623 UTC 15 February 2019
Temperature: -5.0°C (23°F)
Dewpoint: -6.0°C (21°F) [RH = 93%]
Pressure (altimeter): 29.58 inches Hg (1001.8 mb)
[Sea-level pressure: 1004.3 mb]
Winds: variable direction winds at 2 MPH (2 knots; 1.0 m/s)
Visibility: 6 miles (10 km)
Ceiling: 3600 feet AGL
Clouds: few clouds at 2400 feet AGL
overcast cloud deck at 3600 feet AGL
Weather: -SN  (light snow)

METAR text: CYLW 151615Z AUTO VRB02KT 3SM -SN SCT022 OVC036 M05/M06 A2958 RMK SLP043
Conditions at: CYLW (KELOWNA APT , BC, CA) observed 1615 UTC 15 February 2019
Temperature: -5.0°C (23°F)
Dewpoint: -6.0°C (21°F) [RH = 93%]
Pressure (altimeter): 29.58 inches Hg (1001.8 mb)
[Sea-level pressure: 1004.3 mb]
Winds: variable direction winds at 2 MPH (2 knots; 1.0 m/s)
Visibility: 3 miles ( 5 km)
Ceiling: 3600 feet AGL
Clouds: scattered clouds at 2200 feet AGL
overcast cloud deck at 3600 feet AGL
Weather: -SN  (light snow)

METAR text: CYLW 151609Z AUTO VRB02KT 2 1/2SM -SN SCT022 OVC036 M05/M06 A2958 RMK SLP043
Conditions at: CYLW (KELOWNA APT , BC, CA) observed 1609 UTC 15 February 2019
Temperature: -5.0°C (23°F)
Dewpoint: -6.0°C (21°F) [RH = 93%]
Pressure (altimeter): 29.58 inches Hg (1001.8 mb)
[Sea-level pressure: 1004.3 mb]
Winds: variable direction winds at 2 MPH (2 knots; 1.0 m/s)
Visibility: 2.50 miles (4.02 km)
Ceiling: 3600 feet AGL
Clouds: scattered clouds at 2200 feet AGL
overcast cloud deck at 3600 feet AGL
Weather: -SN  (light snow)

METAR text: CYLW 151600Z AUTO 35002KT 1 1/2SM -SN BKN022 OVC036 M05/M06 A2958 RMK VIS VRB 1 1/4-2 1/4 SLP042
Conditions at: CYLW (KELOWNA APT , BC, CA) observed 1600 UTC 15 February 2019
Temperature: -5.0°C (23°F)
Dewpoint: -6.0°C (21°F) [RH = 93%]
Pressure (altimeter): 29.58 inches Hg (1001.8 mb)
[Sea-level pressure: 1004.2 mb]
Winds: from the N (350 degrees) at 2 MPH (2 knots; 1.0 m/s)
Visibility: 1.50 miles (2.41 km)
Ceiling: 2200 feet AGL
Clouds: broken clouds at 2200 feet AGL
overcast cloud deck at 3600 feet AGL
Weather: -SN  (light snow)

METAR text: CYLW 151544Z AUTO 00000KT 1 1/4SM -SN BKN024 OVC036 M05/M06 A2957 RMK VIS VRB 3/4-1 3/4 SLP041
Conditions at: CYLW (KELOWNA APT , BC, CA) observed 1544 UTC 15 February 2019
Temperature: -5.0°C (23°F)
Dewpoint: -6.0°C (21°F) [RH = 93%]
Pressure (altimeter): 29.57 inches Hg (1001.4 mb)
[Sea-level pressure: 1004.1 mb]
Winds: calm
Visibility: 1.25 miles (2.01 km)
Ceiling: 2400 feet AGL
Clouds: broken clouds at 2400 feet AGL
overcast cloud deck at 3600 feet AGL
Weather: -SN  (light snow)

METAR text: CYLW 151535Z AUTO VRB02KT 2SM -SN OVC032 M06/M06 A2957 RMK VIS VRB 1-3 SLP041
Conditions at: CYLW (KELOWNA APT , BC, CA) observed 1535 UTC 15 February 2019
Temperature: -6.0°C (21°F)
Dewpoint: -6.0°C (21°F) [RH = 100%]
Pressure (altimeter): 29.57 inches Hg (1001.4 mb)
[Sea-level pressure: 1004.1 mb]
Winds: variable direction winds at 2 MPH (2 knots; 1.0 m/s)
Visibility: 2.00 miles (3.22 km)
Ceiling: 3200 feet AGL
Clouds: overcast cloud deck at 3200 feet AGL
Weather: -SN  (light snow)

METAR text: CYLW 151532Z AUTO VRB02KT 2 1/2SM -SN OVC034 M06/M06 A2957 RMK VIS VRB 1-3 SLP041
Conditions at: CYLW (KELOWNA APT , BC, CA) observed 1532 UTC 15 February 2019
Temperature: -6.0°C (21°F)
Dewpoint: -6.0°C (21°F) [RH = 100%]
Pressure (altimeter): 29.57 inches Hg (1001.4 mb)
[Sea-level pressure: 1004.1 mb]
Winds: variable direction winds at 2 MPH (2 knots; 1.0 m/s)
Visibility: 2.50 miles (4.02 km)
Ceiling: 3400 feet AGL
Clouds: overcast cloud deck at 3400 feet AGL
Weather: -SN  (light snow)

METAR text: CYLW 151526Z AUTO 36002KT 3SM -SN OVC038 M06/M06 A2957 RMK SLP040
Conditions at: CYLW (KELOWNA APT , BC, CA) observed 1526 UTC 15 February 2019
Temperature: -6.0°C (21°F)
Dewpoint: -6.0°C (21°F) [RH = 100%]
Pressure (altimeter): 29.57 inches Hg (1001.4 mb)
[Sea-level pressure: 1004.0 mb]
Winds: from the N (360 degrees) at 2 MPH (2 knots; 1.0 m/s)
Visibility: 3 miles ( 5 km)
Ceiling: 3800 feet AGL
Clouds: overcast cloud deck at 3800 feet AGL
Weather: -SN  (light snow)

METAR text: CYLW 151524Z AUTO 33002KT 2 1/2SM -SN OVC038 M06/M06 A2957 RMK SLP040
Conditions at: CYLW (KELOWNA APT , BC, CA) observed 1524 UTC 15 February 2019
Temperature: -6.0°C (21°F)
Dewpoint: -6.0°C (21°F) [RH = 100%]
Pressure (altimeter): 29.57 inches Hg (1001.4 mb)
[Sea-level pressure: 1004.0 mb]
Winds: from the NNW (330 degrees) at 2 MPH (2 knots; 1.0 m/s)
Visibility: 2.50 miles (4.02 km)
Ceiling: 3800 feet AGL
Clouds: overcast cloud deck at 3800 feet AGL
Weather: -SN  (light snow)

METAR text: CYLW 151518Z AUTO 35002KT 2 1/4SM -SN BKN036 OVC045 M06/M06 A2956 RMK SLP038
Conditions at: CYLW (KELOWNA APT , BC, CA) observed 1518 UTC 15 February 2019
Temperature: -6.0°C (21°F)
Dewpoint: -6.0°C (21°F) [RH = 100%]
Pressure (altimeter): 29.56 inches Hg (1001.1 mb)
[Sea-level pressure: 1003.8 mb]
Winds: from the N (350 degrees) at 2 MPH (2 knots; 1.0 m/s)
Visibility: 2.25 miles (3.62 km)
Ceiling: 3600 feet AGL
Clouds: broken clouds at 3600 feet AGL
overcast cloud deck at 4500 feet AGL
Weather: -SN  (light snow)

METAR text: CYLW 151514Z AUTO 01003KT 3SM -SN BKN036 OVC045 M06/M06 A2956 RMK SLP038
Conditions at: CYLW (KELOWNA APT , BC, CA) observed 1514 UTC 15 February 2019
Temperature: -6.0°C (21°F)
Dewpoint: -6.0°C (21°F) [RH = 100%]
Pressure (altimeter): 29.56 inches Hg (1001.1 mb)
[Sea-level pressure: 1003.8 mb]
Winds: from the N (10 degrees) at 3 MPH (3 knots; 1.5 m/s)
Visibility: 3 miles ( 5 km)
Ceiling: 3600 feet AGL
Clouds: broken clouds at 3600 feet AGL
overcast cloud deck at 4500 feet AGL
Weather: -SN  (light snow)

METAR text: CYLW 151500Z AUTO 00000KT 7SM -SN BKN036 OVC065 M06/M06 A2956 RMK SLP036
Conditions at: CYLW (KELOWNA APT , BC, CA) observed 1500 UTC 15 February 2019
Temperature: -6.0°C (21°F)
Dewpoint: -6.0°C (21°F) [RH = 100%]
Pressure (altimeter): 29.56 inches Hg (1001.1 mb)
[Sea-level pressure: 1003.6 mb]
Winds: calm
Visibility: 7 miles (11 km)
Ceiling: 3600 feet AGL
Clouds: broken clouds at 3600 feet AGL
overcast cloud deck at 6500 feet AGL
Weather: -SN  (light snow)

METAR text: CYLW 151457Z AUTO VRB02KT 6SM -SN BKN036 OVC065 M06/M06 A2956 RMK SLP036
Conditions at: CYLW (KELOWNA APT , BC, CA) observed 1457 UTC 15 February 2019
Temperature: -6.0°C (21°F)
Dewpoint: -6.0°C (21°F) [RH = 100%]
Pressure (altimeter): 29.56 inches Hg (1001.1 mb)
[Sea-level pressure: 1003.6 mb]
Winds: variable direction winds at 2 MPH (2 knots; 1.0 m/s)
Visibility: 6 miles (10 km)
Ceiling: 3600 feet AGL
Clouds: broken clouds at 3600 feet AGL
overcast cloud deck at 6500 feet AGL
Weather: -SN  (light snow)

METAR text: CYLW 151451Z AUTO 09002KT 3SM -SN OVC036 M06/M06 A2956 RMK SLP036
Conditions at: CYLW (KELOWNA APT , BC, CA) observed 1451 UTC 15 February 2019
Temperature: -6.0°C (21°F)
Dewpoint: -6.0°C (21°F) [RH = 100%]
Pressure (altimeter): 29.56 inches Hg (1001.1 mb)
[Sea-level pressure: 1003.6 mb]
Winds: from the E (90 degrees) at 2 MPH (2 knots; 1.0 m/s)
Visibility: 3 miles ( 5 km)
Ceiling: 3600 feet AGL
Clouds: overcast cloud deck at 3600 feet AGL
Weather: -SN  (light snow)

METAR text: CYLW 151449Z AUTO 09002KT 2 1/2SM -SN BKN036 OVC065 M06/M06 A2956 RMK SLP035
Conditions at: CYLW (KELOWNA APT , BC, CA) observed 1449 UTC 15 February 2019
Temperature: -6.0°C (21°F)
Dewpoint: -6.0°C (21°F) [RH = 100%]
Pressure (altimeter): 29.56 inches Hg (1001.1 mb)
[Sea-level pressure: 1003.5 mb]
Winds: from the E (90 degrees) at 2 MPH (2 knots; 1.0 m/s)
Visibility: 2.50 miles (4.02 km)
Ceiling: 3600 feet AGL
Clouds: broken clouds at 3600 feet AGL
overcast cloud deck at 6500 feet AGL
Weather: -SN  (light snow)

METAR text: CYLW 151439Z AUTO VRB03KT 2SM -SN BKN036 BKN042 OVC065 M06/M06 A2955 RMK VIS VRB 1 1/4-3 SLP033
Conditions at: CYLW (KELOWNA APT , BC, CA) observed 1439 UTC 15 February 2019
Temperature: -6.0°C (21°F)
Dewpoint: -6.0°C (21°F) [RH = 100%]
Pressure (altimeter): 29.55 inches Hg (1000.8 mb)
[Sea-level pressure: 1003.3 mb]
Winds: variable direction winds at 3 MPH (3 knots; 1.5 m/s)
Visibility: 2.00 miles (3.22 km)
Ceiling: 3600 feet AGL
Clouds: broken clouds at 3600 feet AGL
broken clouds at 4200 feet AGL
overcast cloud deck at 6500 feet AGL
Weather: -SN  (light snow)

METAR text: CYLW 151437Z AUTO VRB02KT 2 1/2SM -SN BKN036 BKN042 OVC065 M05/M06 A2955 RMK VIS VRB 1 1/4-3 SLP033
Conditions at: CYLW (KELOWNA APT , BC, CA) observed 1437 UTC 15 February 2019
Temperature: -5.0°C (23°F)
Dewpoint: -6.0°C (21°F) [RH = 93%]
Pressure (altimeter): 29.55 inches Hg (1000.8 mb)
[Sea-level pressure: 1003.3 mb]
Winds: variable direction winds at 2 MPH (2 knots; 1.0 m/s)
Visibility: 2.50 miles (4.02 km)
Ceiling: 3600 feet AGL
Clouds: broken clouds at 3600 feet AGL
broken clouds at 4200 feet AGL
overcast cloud deck at 6500 feet AGL
Weather: -SN  (light snow)

METAR text: CYLW 151430Z AUTO 24002KT 5SM -SN SCT036 BKN047 OVC065 M05/M06 A2955 RMK SLP034
Conditions at: CYLW (KELOWNA APT , BC, CA) observed 1430 UTC 15 February 2019
Temperature: -5.0°C (23°F)
Dewpoint: -6.0°C (21°F) [RH = 93%]
Pressure (altimeter): 29.55 inches Hg (1000.8 mb)
[Sea-level pressure: 1003.4 mb]
Winds: from the WSW (240 degrees) at 2 MPH (2 knots; 1.0 m/s)
Visibility: 5 miles ( 8 km)
Ceiling: 4700 feet AGL
Clouds: scattered clouds at 3600 feet AGL
broken clouds at 4700 feet AGL
overcast cloud deck at 6500 feet AGL
Weather: -SN  (light snow)

METAR text: CYLW 151423Z AUTO 24002KT 6SM -SN SCT038 BKN050 OVC065 M05/M06 A2955 RMK SLP033
Conditions at: CYLW (KELOWNA APT , BC, CA) observed 1423 UTC 15 February 2019
Temperature: -5.0°C (23°F)
Dewpoint: -6.0°C (21°F) [RH = 93%]
Pressure (altimeter): 29.55 inches Hg (1000.8 mb)
[Sea-level pressure: 1003.3 mb]
Winds: from the WSW (240 degrees) at 2 MPH (2 knots; 1.0 m/s)
Visibility: 6 miles (10 km)
Ceiling: 5000 feet AGL
Clouds: scattered clouds at 3800 feet AGL
broken clouds at 5000 feet AGL
overcast cloud deck at 6500 feet AGL
Weather: -SN  (light snow)

METAR text: CYLW 151416Z AUTO 26003KT 3SM -SN SCT022 BKN036 BKN050 OVC065 M06/M06 A2955 RMK SLP032
Conditions at: CYLW (KELOWNA APT , BC, CA) observed 1416 UTC 15 February 2019
Temperature: -6.0°C (21°F)
Dewpoint: -6.0°C (21°F) [RH = 100%]
Pressure (altimeter): 29.55 inches Hg (1000.8 mb)
[Sea-level pressure: 1003.2 mb]
Winds: from the W (260 degrees) at 3 MPH (3 knots; 1.5 m/s)
Visibility: 3 miles ( 5 km)
Ceiling: 3600 feet AGL
Clouds: scattered clouds at 2200 feet AGL
broken clouds at 3600 feet AGL
broken clouds at 5000 feet AGL
overcast cloud deck at 6500 feet AGL
Weather: -SN  (light snow)

METAR text: CYLW 151414Z AUTO 26003KT 3SM -SN BKN022 BKN036 BKN050 OVC065 M06/M06 A2954 RMK SLP031
Conditions at: CYLW (KELOWNA APT , BC, CA) observed 1414 UTC 15 February 2019
Temperature: -6.0°C (21°F)
Dewpoint: -6.0°C (21°F) [RH = 100%]
Pressure (altimeter): 29.54 inches Hg (1000.4 mb)
[Sea-level pressure: 1003.1 mb]
Winds: from the W (260 degrees) at 3 MPH (3 knots; 1.5 m/s)
Visibility: 3 miles ( 5 km)
Ceiling: 2200 feet AGL
Clouds: broken clouds at 2200 feet AGL
broken clouds at 3600 feet AGL
broken clouds at 5000 feet AGL
overcast cloud deck at 6500 feet AGL
Weather: -SN  (light snow)

METAR text: CYLW 151410Z AUTO 27002KT 2 1/2SM -SN BKN022 BKN036 OVC050 M06/M06 A2954 RMK VIS VRB 1 1/2-3 SLP031
Conditions at: CYLW (KELOWNA APT , BC, CA) observed 1410 UTC 15 February 2019
Temperature: -6.0°C (21°F)
Dewpoint: -6.0°C (21°F) [RH = 100%]
Pressure (altimeter): 29.54 inches Hg (1000.4 mb)
[Sea-level pressure: 1003.1 mb]
Winds: from the W (270 degrees) at 2 MPH (2 knots; 1.0 m/s)
Visibility: 2.50 miles (4.02 km)
Ceiling: 2200 feet AGL
Clouds: broken clouds at 2200 feet AGL
broken clouds at 3600 feet AGL
overcast cloud deck at 5000 feet AGL
Weather: -SN  (light snow)

METAR text: CYLW 151400Z AUTO 00000KT 1SM -SN VV019 M06/M06 A2954 RMK SLP031
Conditions at: CYLW (KELOWNA APT , BC, CA) observed 1400 UTC 15 February 2019
Temperature: -6.0°C (21°F)
Dewpoint: -6.0°C (21°F) [RH = 100%]
Pressure (altimeter): 29.54 inches Hg (1000.4 mb)
[Sea-level pressure: 1003.1 mb]
Winds: calm
Visibility: 1.00 miles (1.61 km)
Ceiling: indefinite ceiling with vertical visibility of 1900 feet AGL
Clouds: obscured sky
Weather: -SN  (light snow)

METAR text: CYLW 151307Z AUTO 11002KT 1 1/4SM -SN BKN024 BKN036 OVC045 M06/M07 A2954 RMK VIS VRB 3/4-2 1/2 SLP028
Conditions at: CYLW (KELOWNA APT , BC, CA) observed 1307 UTC 15 February 2019
Temperature: -6.0°C (21°F)
Dewpoint: -7.0°C (19°F) [RH = 93%]
Pressure (altimeter): 29.54 inches Hg (1000.4 mb)
[Sea-level pressure: 1002.8 mb]
Winds: from the ESE (110 degrees) at 2 MPH (2 knots; 1.0 m/s)
Visibility: 1.25 miles (2.01 km)
Ceiling: 2400 feet AGL
Clouds: broken clouds at 2400 feet AGL
broken clouds at 3600 feet AGL
overcast cloud deck at 4500 feet AGL
Weather: -SN  (light snow)

METAR text: CYLW 151302Z AUTO 11003KT 2 1/4SM -SN BKN034 BKN045 OVC065 M06/M07 A2953 RMK VIS VRB 1 1/4-3 SLP027
Conditions at: CYLW (KELOWNA APT , BC, CA) observed 1302 UTC 15 February 2019
Temperature: -6.0°C (21°F)
Dewpoint: -7.0°C (19°F) [RH = 93%]
Pressure (altimeter): 29.53 inches Hg (1000.1 mb)
[Sea-level pressure: 1002.7 mb]
Winds: from the ESE (110 degrees) at 3 MPH (3 knots; 1.5 m/s)
Visibility: 2.25 miles (3.62 km)
Ceiling: 3400 feet AGL
Clouds: broken clouds at 3400 feet AGL
broken clouds at 4500 feet AGL
overcast cloud deck at 6500 feet AGL
Weather: -SN  (light snow)

METAR text: CYLW 151300Z AUTO 11002KT 3SM -SN BKN037 BKN045 OVC065 M06/M07 A2953 RMK SLP027
Conditions at: CYLW (KELOWNA APT , BC, CA) observed 1300 UTC 15 February 2019
Temperature: -6.0°C (21°F)
Dewpoint: -7.0°C (19°F) [RH = 93%]
Pressure (altimeter): 29.53 inches Hg (1000.1 mb)
[Sea-level pressure: 1002.7 mb]
Winds: from the ESE (110 degrees) at 2 MPH (2 knots; 1.0 m/s)
Visibility: 3 miles ( 5 km)
Ceiling: 3700 feet AGL
Clouds: broken clouds at 3700 feet AGL
broken clouds at 4500 feet AGL
overcast cloud deck at 6500 feet AGL
Weather: -SN  (light snow)

METAR text: CYLW 151256Z AUTO 13003KT 120V240 5SM -SN SCT037 BKN050 OVC065 M06/M07 A2953 RMK SLP028
Conditions at: CYLW (KELOWNA APT , BC, CA) observed 1256 UTC 15 February 2019
Temperature: -6.0°C (21°F)
Dewpoint: -7.0°C (19°F) [RH = 93%]
Pressure (altimeter): 29.53 inches Hg (1000.1 mb)
[Sea-level pressure: 1002.8 mb]
Winds: from the SE (130 degrees) at 3 MPH (3 knots; 1.5 m/s)
Visibility: 5 miles ( 8 km)
Ceiling: 5000 feet AGL
Clouds: scattered clouds at 3700 feet AGL
broken clouds at 5000 feet AGL
overcast cloud deck at 6500 feet AGL
Weather: -SN  (light snow)

METAR text: CYLW 151206Z AUTO 00000KT 9SM -SN SCT033 OVC055 M06/M07 A2951 RMK SLP021
Conditions at: CYLW (KELOWNA APT , BC, CA) observed 1206 UTC 15 February 2019
Temperature: -6.0°C (21°F)
Dewpoint: -7.0°C (19°F) [RH = 93%]
Pressure (altimeter): 29.51 inches Hg (999.4 mb)
[Sea-level pressure: 1002.1 mb]
Winds: calm
Visibility: 9 miles (14 km)
Ceiling: 5500 feet AGL
Clouds: scattered clouds at 3300 feet AGL
overcast cloud deck at 5500 feet AGL
Weather: -SN  (light snow)

METAR text: CYLW 151200Z AUTO VRB02KT 9SM SCT035 OVC055 M06/M07 A2951 RMK SLP020
Conditions at: CYLW (KELOWNA APT , BC, CA) observed 1200 UTC 15 February 2019
Temperature: -6.0°C (21°F)
Dewpoint: -7.0°C (19°F) [RH = 93%]
Pressure (altimeter): 29.51 inches Hg (999.4 mb)
[Sea-level pressure: 1002.0 mb]
Winds: variable direction winds at 2 MPH (2 knots; 1.0 m/s)
Visibility: 9 miles (14 km)
Ceiling: 5500 feet AGL
Clouds: scattered clouds at 3500 feet AGL
overcast cloud deck at 5500 feet AGL
Weather: no significant weather observed at this time

METAR text: CYLW 151126Z AUTO 00000KT 6SM -SN FEW020 BKN039 OVC065 M06/M07 A2950 RMK SLP018
Conditions at: CYLW (KELOWNA APT , BC, CA) observed 1126 UTC 15 February 2019
Temperature: -6.0°C (21°F)
Dewpoint: -7.0°C (19°F) [RH = 93%]
Pressure (altimeter): 29.50 inches Hg (999.1 mb)
[Sea-level pressure: 1001.8 mb]
Winds: calm
Visibility: 6 miles (10 km)
Ceiling: 3900 feet AGL
Clouds: few clouds at 2000 feet AGL
broken clouds at 3900 feet AGL
overcast cloud deck at 6500 feet AGL
Weather: -SN  (light snow)

METAR text: CYLW 151117Z AUTO 00000KT 3SM -SN SCT020 OVC039 M06/M07 A2950 RMK SLP017
Conditions at: CYLW (KELOWNA APT , BC, CA) observed 1117 UTC 15 February 2019
Temperature: -6.0°C (21°F)
Dewpoint: -7.0°C (19°F) [RH = 93%]
Pressure (altimeter): 29.50 inches Hg (999.1 mb)
[Sea-level pressure: 1001.7 mb]
Winds: calm
Visibility: 3 miles ( 5 km)
Ceiling: 3900 feet AGL
Clouds: scattered clouds at 2000 feet AGL
overcast cloud deck at 3900 feet AGL
Weather: -SN  (light snow)

METAR text: CYLW 151115Z AUTO 00000KT 2 1/2SM -SN BKN020 OVC039 M06/M07 A2950 RMK VIS VRB 1 3/4-3 SLP017
Conditions at: CYLW (KELOWNA APT , BC, CA) observed 1115 UTC 15 February 2019
Temperature: -6.0°C (21°F)
Dewpoint: -7.0°C (19°F) [RH = 93%]
Pressure (altimeter): 29.50 inches Hg (999.1 mb)
[Sea-level pressure: 1001.7 mb]
Winds: calm
Visibility: 2.50 miles (4.02 km)
Ceiling: 2000 feet AGL
Clouds: broken clouds at 2000 feet AGL
overcast cloud deck at 3900 feet AGL
Weather: -SN  (light snow)

METAR text: CYLW 151100Z AUTO 00000KT 1 1/2SM -SN OVC022 M06/M07 A2950 RMK SLP015
Conditions at: CYLW (KELOWNA APT , BC, CA) observed 1100 UTC 15 February 2019
Temperature: -6.0°C (21°F)
Dewpoint: -7.0°C (19°F) [RH = 93%]
Pressure (altimeter): 29.50 inches Hg (999.1 mb)
[Sea-level pressure: 1001.5 mb]
Winds: calm
Visibility: 1.50 miles (2.41 km)
Ceiling: 2200 feet AGL
Clouds: overcast cloud deck at 2200 feet AGL
Weather: -SN  (light snow)

METAR text: CYLW 151052Z AUTO 30002KT 1 3/4SM -SN OVC024 M07/M07 A2949 RMK VIS VRB 1 1/4-2 1/4 SLP014
Conditions at: CYLW (KELOWNA APT , BC, CA) observed 1052 UTC 15 February 2019
Temperature: -7.0°C (19°F)
Dewpoint: -7.0°C (19°F) [RH = 100%]
Pressure (altimeter): 29.49 inches Hg (998.7 mb)
[Sea-level pressure: 1001.4 mb]
Winds: from the WNW (300 degrees) at 2 MPH (2 knots; 1.0 m/s)
Visibility: 1.75 miles (2.82 km)
Ceiling: 2400 feet AGL
Clouds: overcast cloud deck at 2400 feet AGL
Weather: -SN  (light snow)

METAR text: CYLW 151037Z AUTO 00000KT 2SM -SN BKN028 OVC035 M06/M07 A2949 RMK VIS VRB 1 1/2-3 SLP014
Conditions at: CYLW (KELOWNA APT , BC, CA) observed 1037 UTC 15 February 2019
Temperature: -6.0°C (21°F)
Dewpoint: -7.0°C (19°F) [RH = 93%]
Pressure (altimeter): 29.49 inches Hg (998.7 mb)
[Sea-level pressure: 1001.4 mb]
Winds: calm
Visibility: 2.00 miles (3.22 km)
Ceiling: 2800 feet AGL
Clouds: broken clouds at 2800 feet AGL
overcast cloud deck at 3500 feet AGL
Weather: -SN  (light snow)

METAR text: CYLW 151033Z AUTO 00000KT 2 1/2SM -SN OVC033 M06/M07 A2949 RMK SLP014
Conditions at: CYLW (KELOWNA APT , BC, CA) observed 1033 UTC 15 February 2019
Temperature: -6.0°C (21°F)
Dewpoint: -7.0°C (19°F) [RH = 93%]
Pressure (altimeter): 29.49 inches Hg (998.7 mb)
[Sea-level pressure: 1001.4 mb]
Winds: calm
Visibility: 2.50 miles (4.02 km)
Ceiling: 3300 feet AGL
Clouds: overcast cloud deck at 3300 feet AGL
Weather: -SN  (light snow)

METAR text: CYLW 151019Z AUTO 15003KT 3SM -SN SCT020 OVC035 M07/M07 A2949 RMK SLP013
Conditions at: CYLW (KELOWNA APT , BC, CA) observed 1019 UTC 15 February 2019
Temperature: -7.0°C (19°F)
Dewpoint: -7.0°C (19°F) [RH = 100%]
Pressure (altimeter): 29.49 inches Hg (998.7 mb)
[Sea-level pressure: 1001.3 mb]
Winds: from the SSE (150 degrees) at 3 MPH (3 knots; 1.5 m/s)
Visibility: 3 miles ( 5 km)
Ceiling: 3500 feet AGL
Clouds: scattered clouds at 2000 feet AGL
overcast cloud deck at 3500 feet AGL
Weather: -SN  (light snow)

METAR text: CYLW 151017Z AUTO 15003KT 2 1/2SM -SN SCT020 OVC035 M07/M07 A2949 RMK PRESRR SLP013
Conditions at: CYLW (KELOWNA APT , BC, CA) observed 1017 UTC 15 February 2019
Temperature: -7.0°C (19°F)
Dewpoint: -7.0°C (19°F) [RH = 100%]
Pressure (altimeter): 29.49 inches Hg (998.7 mb)
[Sea-level pressure: 1001.3 mb]
Winds: from the SSE (150 degrees) at 3 MPH (3 knots; 1.5 m/s)
Visibility: 2.50 miles (4.02 km)
Ceiling: 3500 feet AGL
Clouds: scattered clouds at 2000 feet AGL
overcast cloud deck at 3500 feet AGL
Weather: -SN  (light snow)

METAR text: CYLW 151014Z AUTO 16003KT 2SM -SN SCT020 OVC035 M07/M07 A2949 RMK PRESRR SLP012
Conditions at: CYLW (KELOWNA APT , BC, CA) observed 1014 UTC 15 February 2019
Temperature: -7.0°C (19°F)
Dewpoint: -7.0°C (19°F) [RH = 100%]
Pressure (altimeter): 29.49 inches Hg (998.7 mb)
[Sea-level pressure: 1001.2 mb]
Winds: from the SSE (160 degrees) at 3 MPH (3 knots; 1.5 m/s)
Visibility: 2.00 miles (3.22 km)
Ceiling: 3500 feet AGL
Clouds: scattered clouds at 2000 feet AGL
overcast cloud deck at 3500 feet AGL
Weather: -SN  (light snow)

METAR text: CYLW 151000Z AUTO 00000KT 1 1/4SM -SN OVC020 M07/M07 A2947 RMK SLP008
Conditions at: CYLW (KELOWNA APT , BC, CA) observed 1000 UTC 15 February 2019
Temperature: -7.0°C (19°F)
Dewpoint: -7.0°C (19°F) [RH = 100%]
Pressure (altimeter): 29.47 inches Hg (998.1 mb)
[Sea-level pressure: 1000.8 mb]
Winds: calm
Visibility: 1.25 miles (2.01 km)
Ceiling: 2000 feet AGL
Clouds: overcast cloud deck at 2000 feet AGL
Weather: -SN  (light snow)

METAR text: CYLW 150901Z AUTO VRB02KT 1 1/2SM -SN BKN024 OVC037 M07/M08 A2946 RMK SLP002
Conditions at: CYLW (KELOWNA APT , BC, CA) observed 0901 UTC 15 February 2019
Temperature: -7.0°C (19°F)
Dewpoint: -8.0°C (18°F) [RH = 93%]
Pressure (altimeter): 29.46 inches Hg (997.7 mb)
[Sea-level pressure: 1000.2 mb]
Winds: variable direction winds at 2 MPH (2 knots; 1.0 m/s)
Visibility: 1.50 miles (2.41 km)
Ceiling: 2400 feet AGL
Clouds: broken clouds at 2400 feet AGL
overcast cloud deck at 3700 feet AGL
Weather: -SN  (light snow)

METAR text: CYLW 150900Z AUTO VRB02KT 1 1/2SM -SN BKN026 OVC037 M07/M08 A2946 RMK SLP002
Conditions at: CYLW (KELOWNA APT , BC, CA) observed 0900 UTC 15 February 2019
Temperature: -7.0°C (19°F)
Dewpoint: -8.0°C (18°F) [RH = 93%]
Pressure (altimeter): 29.46 inches Hg (997.7 mb)
[Sea-level pressure: 1000.2 mb]
Winds: variable direction winds at 2 MPH (2 knots; 1.0 m/s)
Visibility: 1.50 miles (2.41 km)
Ceiling: 2600 feet AGL
Clouds: broken clouds at 2600 feet AGL
overcast cloud deck at 3700 feet AGL
Weather: -SN  (light snow)

METAR text: CYLW 150802Z AUTO 00000KT 2SM -SN OVC032 M07/M08 A2944 RMK VIS VRB 1 3/4-3 SLP998
Conditions at: CYLW (KELOWNA APT , BC, CA) observed 0802 UTC 15 February 2019
Temperature: -7.0°C (19°F)
Dewpoint: -8.0°C (18°F) [RH = 93%]
Pressure (altimeter): 29.44 inches Hg (997.0 mb)
[Sea-level pressure:  999.8 mb]
Winds: calm
Visibility: 2.00 miles (3.22 km)
Ceiling: 3200 feet AGL
Clouds: overcast cloud deck at 3200 feet AGL
Weather: -SN  (light snow)

METAR text: CYLW 150800Z AUTO 00000KT 2 1/2SM -SN OVC032 M07/M08 A2944 RMK VIS VRB 1 3/4-3 SLP998
Conditions at: CYLW (KELOWNA APT , BC, CA) observed 0800 UTC 15 February 2019
Temperature: -7.0°C (19°F)
Dewpoint: -8.0°C (18°F) [RH = 93%]
Pressure (altimeter): 29.44 inches Hg (997.0 mb)
[Sea-level pressure:  999.8 mb]
Winds: calm
Visibility: 2.50 miles (4.02 km)
Ceiling: 3200 feet AGL
Clouds: overcast cloud deck at 3200 feet AGL
Weather: -SN  (light snow)

METAR text: CYLW 150747Z AUTO 00000KT 2 1/2SM -SN OVC032 M07/M08 A2944 RMK SLP998
Conditions at: CYLW (KELOWNA APT , BC, CA) observed 0747 UTC 15 February 2019
Temperature: -7.0°C (19°F)
Dewpoint: -8.0°C (18°F) [RH = 93%]
Pressure (altimeter): 29.44 inches Hg (997.0 mb)
[Sea-level pressure:  999.8 mb]
Winds: calm
Visibility: 2.50 miles (4.02 km)
Ceiling: 3200 feet AGL
Clouds: overcast cloud deck at 3200 feet AGL
Weather: -SN  (light snow)

METAR text: CYLW 150739Z AUTO 00000KT 2SM -SN OVC026 M07/M08 A2944 RMK SLP998
Conditions at: CYLW (KELOWNA APT , BC, CA) observed 0739 UTC 15 February 2019
Temperature: -7.0°C (19°F)
Dewpoint: -8.0°C (18°F) [RH = 93%]
Pressure (altimeter): 29.44 inches Hg (997.0 mb)
[Sea-level pressure:  999.8 mb]
Winds: calm
Visibility: 2.00 miles (3.22 km)
Ceiling: 2600 feet AGL
Clouds: overcast cloud deck at 2600 feet AGL
Weather: -SN  (light snow)

METAR text: CYLW 150732Z AUTO 00000KT 2 1/2SM -SN OVC026 M07/M08 A2944 RMK SLP997
Conditions at: CYLW (KELOWNA APT , BC, CA) observed 0732 UTC 15 February 2019
Temperature: -7.0°C (19°F)
Dewpoint: -8.0°C (18°F) [RH = 93%]
Pressure (altimeter): 29.44 inches Hg (997.0 mb)
[Sea-level pressure:  999.7 mb]
Winds: calm
Visibility: 2.50 miles (4.02 km)
Ceiling: 2600 feet AGL
Clouds: overcast cloud deck at 2600 feet AGL
Weather: -SN  (light snow)

METAR text: CYLW 150730Z AUTO 00000KT 2SM -SN OVC026 M07/M08 A2943 RMK SLP996
Conditions at: CYLW (KELOWNA APT , BC, CA) observed 0730 UTC 15 February 2019
Temperature: -7.0°C (19°F)
Dewpoint: -8.0°C (18°F) [RH = 93%]
Pressure (altimeter): 29.43 inches Hg (996.7 mb)
[Sea-level pressure:  999.6 mb]
Winds: calm
Visibility: 2.00 miles (3.22 km)
Ceiling: 2600 feet AGL
Clouds: overcast cloud deck at 2600 feet AGL
Weather: -SN  (light snow)

METAR text: CYLW 150700Z AUTO 32002KT 1 1/2SM -SN OVC020 M07/M08 A2943 RMK VIS VRB 1 1/4-2 1/2 SLP995
Conditions at: CYLW (KELOWNA APT , BC, CA) observed 0700 UTC 15 February 2019
Temperature: -7.0°C (19°F)
Dewpoint: -8.0°C (18°F) [RH = 93%]
Pressure (altimeter): 29.43 inches Hg (996.7 mb)
[Sea-level pressure:  999.5 mb]
Winds: from the NW (320 degrees) at 2 MPH (2 knots; 1.0 m/s)
Visibility: 1.50 miles (2.41 km)
Ceiling: 2000 feet AGL
Clouds: overcast cloud deck at 2000 feet AGL
Weather: -SN  (light snow)

METAR text: CYLW 150622Z AUTO 00000KT 1 1/2SM -SN OVC024 M07/M08 A2943 RMK SLP996
Conditions at: CYLW (KELOWNA APT , BC, CA) observed 0622 UTC 15 February 2019
Temperature: -7.0°C (19°F)
Dewpoint: -8.0°C (18°F) [RH = 93%]
Pressure (altimeter): 29.43 inches Hg (996.7 mb)
[Sea-level pressure:  999.6 mb]
Winds: calm
Visibility: 1.50 miles (2.41 km)
Ceiling: 2400 feet AGL
Clouds: overcast cloud deck at 2400 feet AGL
Weather: -SN  (light snow)

METAR text: CYLW 150612Z AUTO 00000KT 2 1/4SM -SN OVC030 M07/M09 A2943 RMK SLP995
Conditions at: CYLW (KELOWNA APT , BC, CA) observed 0612 UTC 15 February 2019
Temperature: -7.0°C (19°F)
Dewpoint: -9.0°C (16°F) [RH = 86%]
Pressure (altimeter): 29.43 inches Hg (996.7 mb)
[Sea-level pressure:  999.5 mb]
Winds: calm
Visibility: 2.25 miles (3.62 km)
Ceiling: 3000 feet AGL
Clouds: overcast cloud deck at 3000 feet AGL
Weather: -SN  (light snow)

METAR text: CYLW 150600Z AUTO 08002KT 4SM -SN OVC040 M07/M09 A2942 RMK SLP993
Conditions at: CYLW (KELOWNA APT , BC, CA) observed 0600 UTC 15 February 2019
Temperature: -7.0°C (19°F)
Dewpoint: -9.0°C (16°F) [RH = 86%]
Pressure (altimeter): 29.42 inches Hg (996.4 mb)
[Sea-level pressure:  999.3 mb]
Winds: from the E (80 degrees) at 2 MPH (2 knots; 1.0 m/s)
Visibility: 4 miles ( 6 km)
Ceiling: 4000 feet AGL
Clouds: overcast cloud deck at 4000 feet AGL
Weather: -SN  (light snow)

METAR text: CYLW 150552Z AUTO 08002KT 5SM -SN BKN044 OVC060 M07/M09 A2942 RMK SLP995
Conditions at: CYLW (KELOWNA APT , BC, CA) observed 0552 UTC 15 February 2019
Temperature: -7.0°C (19°F)
Dewpoint: -9.0°C (16°F) [RH = 86%]
Pressure (altimeter): 29.42 inches Hg (996.4 mb)
[Sea-level pressure:  999.5 mb]
Winds: from the E (80 degrees) at 2 MPH (2 knots; 1.0 m/s)
Visibility: 5 miles ( 8 km)
Ceiling: 4400 feet AGL
Clouds: broken clouds at 4400 feet AGL
overcast cloud deck at 6000 feet AGL
Weather: -SN  (light snow)

METAR text: CYLW 150544Z AUTO 08003KT 9SM -SN BKN050 OVC060 M07/M09 A2942 RMK SLP993
Conditions at: CYLW (KELOWNA APT , BC, CA) observed 0544 UTC 15 February 2019
Temperature: -7.0°C (19°F)
Dewpoint: -9.0°C (16°F) [RH = 86%]
Pressure (altimeter): 29.42 inches Hg (996.4 mb)
[Sea-level pressure:  999.3 mb]
Winds: from the E (80 degrees) at 3 MPH (3 knots; 1.5 m/s)
Visibility: 9 miles (14 km)
Ceiling: 5000 feet AGL
Clouds: broken clouds at 5000 feet AGL
overcast cloud deck at 6000 feet AGL
Weather: -SN  (light snow)

METAR text: CYLW 150500Z AUTO 34005KT 9SM OVC060 M07/M09 A2940 RMK SLP986
Conditions at: CYLW (KELOWNA APT , BC, CA) observed 0500 UTC 15 February 2019
Temperature: -7.0°C (19°F)
Dewpoint: -9.0°C (16°F) [RH = 86%]
Pressure (altimeter): 29.40 inches Hg (995.7 mb)
[Sea-level pressure:  998.6 mb]
Winds: from the NNW (340 degrees) at 6 MPH (5 knots; 2.6 m/s)
Visibility: 9 miles (14 km)
Ceiling: 6000 feet AGL
Clouds: overcast cloud deck at 6000 feet AGL
Weather: no significant weather observed at this time

METAR text: CYLW 150457Z AUTO 35004KT 9SM OVC060 M07/M09 A2940 RMK SLP990
Conditions at: CYLW (KELOWNA APT , BC, CA) observed 0457 UTC 15 February 2019
Temperature: -7.0°C (19°F)
Dewpoint: -9.0°C (16°F) [RH = 86%]
Pressure (altimeter): 29.40 inches Hg (995.7 mb)
[Sea-level pressure:  999.0 mb]
Winds: from the N (350 degrees) at 5 MPH (4 knots; 2.1 m/s)
Visibility: 9 miles (14 km)
Ceiling: 6000 feet AGL
Clouds: overcast cloud deck at 6000 feet AGL
Weather: no significant weather observed at this time

METAR text: CYLW 150433Z AUTO 35004KT 6SM -SN SCT032 OVC060 M07/M09 A2939 RMK SLP988
Conditions at: CYLW (KELOWNA APT , BC, CA) observed 0433 UTC 15 February 2019
Temperature: -7.0°C (19°F)
Dewpoint: -9.0°C (16°F) [RH = 86%]
Pressure (altimeter): 29.39 inches Hg (995.3 mb)
[Sea-level pressure:  998.8 mb]
Winds: from the N (350 degrees) at 5 MPH (4 knots; 2.1 m/s)
Visibility: 6 miles (10 km)
Ceiling: 6000 feet AGL
Clouds: scattered clouds at 3200 feet AGL
overcast cloud deck at 6000 feet AGL
Weather: -SN  (light snow)

METAR text: CYLW 150423Z AUTO 32004KT 3SM -SN BKN036 OVC065 M07/M10 A2940 RMK SLP990
Conditions at: CYLW (KELOWNA APT , BC, CA) observed 0423 UTC 15 February 2019
Temperature: -7.0°C (19°F)
Dewpoint: -10.0°C (14°F) [RH = 79%]
Pressure (altimeter): 29.40 inches Hg (995.7 mb)
[Sea-level pressure:  999.0 mb]
Winds: from the NW (320 degrees) at 5 MPH (4 knots; 2.1 m/s)
Visibility: 3 miles ( 5 km)
Ceiling: 3600 feet AGL
Clouds: broken clouds at 3600 feet AGL
overcast cloud deck at 6500 feet AGL
Weather: -SN  (light snow)

METAR text: CYLW 150415Z AUTO 35003KT 2 1/2SM -SN OVC038 M07/M10 A2940 RMK SLP990
Conditions at: CYLW (KELOWNA APT , BC, CA) observed 0415 UTC 15 February 2019
Temperature: -7.0°C (19°F)
Dewpoint: -10.0°C (14°F) [RH = 79%]
Pressure (altimeter): 29.40 inches Hg (995.7 mb)
[Sea-level pressure:  999.0 mb]
Winds: from the N (350 degrees) at 3 MPH (3 knots; 1.5 m/s)
Visibility: 2.50 miles (4.02 km)
Ceiling: 3800 feet AGL
Clouds: overcast cloud deck at 3800 feet AGL
Weather: -SN  (light snow)

METAR text: CYLW 150410Z AUTO 34004KT 5SM -SN BKN040 OVC070 M07/M10 A2940 RMK SLP991
Conditions at: CYLW (KELOWNA APT , BC, CA) observed 0410 UTC 15 February 2019
Temperature: -7.0°C (19°F)
Dewpoint: -10.0°C (14°F) [RH = 79%]
Pressure (altimeter): 29.40 inches Hg (995.7 mb)
[Sea-level pressure:  999.1 mb]
Winds: from the NNW (340 degrees) at 5 MPH (4 knots; 2.1 m/s)
Visibility: 5 miles ( 8 km)
Ceiling: 4000 feet AGL
Clouds: broken clouds at 4000 feet AGL
overcast cloud deck at 7000 feet AGL
Weather: -SN  (light snow)

METAR text: CYLW 150400Z AUTO VRB02KT 9SM -SN BKN048 OVC070 M07/M10 A2941 RMK SLP993
Conditions at: CYLW (KELOWNA APT , BC, CA) observed 0400 UTC 15 February 2019
Temperature: -7.0°C (19°F)
Dewpoint: -10.0°C (14°F) [RH = 79%]
Pressure (altimeter): 29.41 inches Hg (996.0 mb)
[Sea-level pressure:  999.3 mb]
Winds: variable direction winds at 2 MPH (2 knots; 1.0 m/s)
Visibility: 9 miles (14 km)
Ceiling: 4800 feet AGL
Clouds: broken clouds at 4800 feet AGL
overcast cloud deck at 7000 feet AGL
Weather: -SN  (light snow)

METAR text: CYLW 150335Z AUTO 34002KT 9SM -SN SCT055 BKN068 OVC092 M07/M10 A2940 RMK SLP991
Conditions at: CYLW (KELOWNA APT , BC, CA) observed 0335 UTC 15 February 2019
Temperature: -7.0°C (19°F)
Dewpoint: -10.0°C (14°F) [RH = 79%]
Pressure (altimeter): 29.40 inches Hg (995.7 mb)
[Sea-level pressure:  999.1 mb]
Winds: from the NNW (340 degrees) at 2 MPH (2 knots; 1.0 m/s)
Visibility: 9 miles (14 km)
Ceiling: 6800 feet AGL
Clouds: scattered clouds at 5500 feet AGL
broken clouds at 6800 feet AGL
overcast cloud deck at 9200 feet AGL
Weather: -SN  (light snow)

METAR text: CYLW 150300Z AUTO 01004KT 9SM OVC070 M07/M10 A2940 RMK SLP989
Conditions at: CYLW (KELOWNA APT , BC, CA) observed 0300 UTC 15 February 2019
Temperature: -7.0°C (19°F)
Dewpoint: -10.0°C (14°F) [RH = 79%]
Pressure (altimeter): 29.40 inches Hg (995.7 mb)
[Sea-level pressure:  998.9 mb]
Winds: from the N (10 degrees) at 5 MPH (4 knots; 2.1 m/s)
Visibility: 9 miles (14 km)
Ceiling: 7000 feet AGL
Clouds: overcast cloud deck at 7000 feet AGL
Weather: no significant weather observed at this time

METAR text: CYLW 150210Z AUTO 00000KT 9SM OVC075 M07/M10 A2940 RMK SLP989
Conditions at: CYLW (KELOWNA APT , BC, CA) observed 0210 UTC 15 February 2019
Temperature: -7.0°C (19°F)
Dewpoint: -10.0°C (14°F) [RH = 79%]
Pressure (altimeter): 29.40 inches Hg (995.7 mb)
[Sea-level pressure:  998.9 mb]
Winds: calm
Visibility: 9 miles (14 km)
Ceiling: 7500 feet AGL
Clouds: overcast cloud deck at 7500 feet AGL
Weather: no significant weather observed at this time

METAR text: CYLW 150200Z AUTO 00000KT 9SM -SN OVC075 M07/M11 A2940 RMK SLP990
Conditions at: CYLW (KELOWNA APT , BC, CA) observed 0200 UTC 15 February 2019
Temperature: -7.0°C (19°F)
Dewpoint: -11.0°C (12°F) [RH = 73%]
Pressure (altimeter): 29.40 inches Hg (995.7 mb)
[Sea-level pressure:  999.0 mb]
Winds: calm
Visibility: 9 miles (14 km)
Ceiling: 7500 feet AGL
Clouds: overcast cloud deck at 7500 feet AGL
Weather: -SN  (light snow)

METAR text: CYLW 150146Z AUTO 00000KT 9SM -SN OVC075 M07/M11 A2940 RMK SLP987
Conditions at: CYLW (KELOWNA APT , BC, CA) observed 0146 UTC 15 February 2019
Temperature: -7.0°C (19°F)
Dewpoint: -11.0°C (12°F) [RH = 73%]
Pressure (altimeter): 29.40 inches Hg (995.7 mb)
[Sea-level pressure:  998.7 mb]
Winds: calm
Visibility: 9 miles (14 km)
Ceiling: 7500 feet AGL
Clouds: overcast cloud deck at 7500 feet AGL
Weather: -SN  (light snow)

METAR text: CYLW 150100Z AUTO 00000KT 9SM BKN065 OVC084 M08/M11 A2939 RMK SLP985
Conditions at: CYLW (KELOWNA APT , BC, CA) observed 0100 UTC 15 February 2019
Temperature: -8.0°C (18°F)
Dewpoint: -11.0°C (12°F) [RH = 79%]
Pressure (altimeter): 29.39 inches Hg (995.3 mb)
[Sea-level pressure:  998.5 mb]
Winds: calm
Visibility: 9 miles (14 km)
Ceiling: 6500 feet AGL
Clouds: broken clouds at 6500 feet AGL
overcast cloud deck at 8400 feet AGL
Weather: no significant weather observed at this time

METAR text: CYLW 150040Z AUTO VRB02KT 9SM BKN085 OVC120 M08/M11 A2940 RMK SLP988
Conditions at: CYLW (KELOWNA APT , BC, CA) observed 0040 UTC 15 February 2019
Temperature: -8.0°C (18°F)
Dewpoint: -11.0°C (12°F) [RH = 79%]
Pressure (altimeter): 29.40 inches Hg (995.7 mb)
[Sea-level pressure:  998.8 mb]
Winds: variable direction winds at 2 MPH (2 knots; 1.0 m/s)
Visibility: 9 miles (14 km)
Ceiling: 8500 feet AGL
Clouds: broken clouds at 8500 feet AGL
overcast cloud deck at 12000 feet AGL
Weather: no significant weather observed at this time

METAR text: CYLW 150018Z AUTO VRB02KT 6SM -SN SCT046 OVC080 M08/M11 A2940 RMK SLP989
Conditions at: CYLW (KELOWNA APT , BC, CA) observed 0018 UTC 15 February 2019
Temperature: -8.0°C (18°F)
Dewpoint: -11.0°C (12°F) [RH = 79%]
Pressure (altimeter): 29.40 inches Hg (995.7 mb)
[Sea-level pressure:  998.9 mb]
Winds: variable direction winds at 2 MPH (2 knots; 1.0 m/s)
Visibility: 6 miles (10 km)
Ceiling: 8000 feet AGL
Clouds: scattered clouds at 4600 feet AGL
overcast cloud deck at 8000 feet AGL
Weather: -SN  (light snow)

METAR text: CYLW 150013Z AUTO 00000KT 5SM -SN SCT046 SCT060 OVC081 M08/M11 A2941 RMK SLP991
Conditions at: CYLW (KELOWNA APT , BC, CA) observed 0013 UTC 15 February 2019
Temperature: -8.0°C (18°F)
Dewpoint: -11.0°C (12°F) [RH = 79%]
Pressure (altimeter): 29.41 inches Hg (996.0 mb)
[Sea-level pressure:  999.1 mb]
Winds: calm
Visibility: 5 miles ( 8 km)
Ceiling: 8100 feet AGL
Clouds: scattered clouds at 4600 feet AGL
scattered clouds at 6000 feet AGL
overcast cloud deck at 8100 feet AGL
Weather: -SN  (light snow)

METAR text: CYLW 150000Z AUTO 00000KT 9SM -SN BKN048 OVC065 M08/M11 A2941 RMK SLP993
Conditions at: CYLW (KELOWNA APT , BC, CA) observed 0000 UTC 15 February 2019
Temperature: -8.0°C (18°F)
Dewpoint: -11.0°C (12°F) [RH = 79%]
Pressure (altimeter): 29.41 inches Hg (996.0 mb)
[Sea-level pressure:  999.3 mb]
Winds: calm
Visibility: 9 miles (14 km)
Ceiling: 4800 feet AGL
Clouds: broken clouds at 4800 feet AGL
overcast cloud deck at 6500 feet AGL
Weather: -SN  (light snow)

METAR text: CYLW 142358Z AUTO VRB02KT 9SM -SN BKN050 OVC065 M08/M11 A2941 RMK SLP994
Conditions at: CYLW (KELOWNA APT , BC, CA) observed 2358 UTC 14 February 2019
Temperature: -8.0°C (18°F)
Dewpoint: -11.0°C (12°F) [RH = 79%]
Pressure (altimeter): 29.41 inches Hg (996.0 mb)
[Sea-level pressure:  999.4 mb]
Winds: variable direction winds at 2 MPH (2 knots; 1.0 m/s)
Visibility: 9 miles (14 km)
Ceiling: 5000 feet AGL
Clouds: broken clouds at 5000 feet AGL
overcast cloud deck at 6500 feet AGL
Weather: -SN  (light snow)

METAR text: CYLW 142300Z AUTO 18002KT 9SM SCT080 BKN110 M08/M12 A2945 RMK SLP005
Conditions at: CYLW (KELOWNA APT , BC, CA) observed 2300 UTC 14 February 2019
Temperature: -8.0°C (18°F)
Dewpoint: -12.0°C (10°F) [RH = 73%]
Pressure (altimeter): 29.45 inches Hg (997.4 mb)
[Sea-level pressure: 1000.5 mb]
Winds: from the S (180 degrees) at 2 MPH (2 knots; 1.0 m/s)
Visibility: 9 miles (14 km)
Ceiling: 11000 feet AGL
Clouds: scattered clouds at 8000 feet AGL
broken clouds at 11000 feet AGL
Weather: no significant weather observed at this time

METAR text: CYLW 142200Z AUTO 00000KT 9SM FEW110 M08/M12 A2947 RMK SLP014
Conditions at: CYLW (KELOWNA APT , BC, CA) observed 2200 UTC 14 February 2019
Temperature: -8.0°C (18°F)
Dewpoint: -12.0°C (10°F) [RH = 73%]
Pressure (altimeter): 29.47 inches Hg (998.1 mb)
[Sea-level pressure: 1001.4 mb]
Winds: calm
Visibility: 9 miles (14 km)
Ceiling: at least 12,000 feet AGL
Clouds: few clouds at 11000 feet AGL
Weather: no significant weather observed at this time

METAR text: CYLW 142100Z AUTO VRB02KT 9SM CLR M09/M12 A2952 RMK SLP031
Conditions at: CYLW (KELOWNA APT , BC, CA) observed 2100 UTC 14 February 2019
Temperature: -9.0°C (16°F)
Dewpoint: -12.0°C (10°F) [RH = 79%]
Pressure (altimeter): 29.52 inches Hg (999.7 mb)
[Sea-level pressure: 1003.1 mb]
Winds: variable direction winds at 2 MPH (2 knots; 1.0 m/s)
Visibility: 9 miles (14 km)
Ceiling: at least 12,000 feet AGL
Clouds: sky clear below 12,000 feet AGL
Weather: no significant weather observed at this time

METAR text: CYLW 142000Z AUTO VRB02KT 9SM CLR M09/M12 A2956 RMK SLP045
Conditions at: CYLW (KELOWNA APT , BC, CA) observed 2000 UTC 14 February 2019
Temperature: -9.0°C (16°F)
Dewpoint: -12.0°C (10°F) [RH = 79%]
Pressure (altimeter): 29.56 inches Hg (1001.1 mb)
[Sea-level pressure: 1004.5 mb]
Winds: variable direction winds at 2 MPH (2 knots; 1.0 m/s)
Visibility: 9 miles (14 km)
Ceiling: at least 12,000 feet AGL
Clouds: sky clear below 12,000 feet AGL
Weather: no significant weather observed at this time

METAR text: CYLW 141900Z AUTO 00000KT 9SM CLR M10/M12 A2961 RMK SLP063
Conditions at: CYLW (KELOWNA APT , BC, CA) observed 1900 UTC 14 February 2019
Temperature: -10.0°C (14°F)
Dewpoint: -12.0°C (10°F) [RH = 85%]
Pressure (altimeter): 29.61 inches Hg (1002.8 mb)
[Sea-level pressure: 1006.3 mb]
Winds: calm
Visibility: 9 miles (14 km)
Ceiling: at least 12,000 feet AGL
Clouds: sky clear below 12,000 feet AGL
Weather: no significant weather observed at this time

METAR text: CYLW 141800Z AUTO 35006KT 9SM CLR M11/M12 A2965 RMK PRESFR SLP078
Conditions at: CYLW (KELOWNA APT , BC, CA) observed 1800 UTC 14 February 2019
Temperature: -11.0°C (12°F)
Dewpoint: -12.0°C (10°F) [RH = 92%]
Pressure (altimeter): 29.65 inches Hg (1004.1 mb)
[Sea-level pressure: 1007.8 mb]
Winds: from the N (350 degrees) at 7 MPH (6 knots; 3.1 m/s)
Visibility: 9 miles (14 km)
Ceiling: at least 12,000 feet AGL
Clouds: sky clear below 12,000 feet AGL
Weather: no significant weather observed at this time

METAR text: CYLW 141700Z AUTO 36007KT 9SM FEW008 SCT016 M14/M15 A2968 RMK SLP088
Conditions at: CYLW (KELOWNA APT , BC, CA) observed 1700 UTC 14 February 2019
Temperature: -14.0°C ( 7°F)
Dewpoint: -15.0°C ( 5°F) [RH = 92%]
Pressure (altimeter): 29.68 inches Hg (1005.2 mb)
[Sea-level pressure: 1008.8 mb]
Winds: from the N (360 degrees) at 8 MPH (7 knots; 3.6 m/s)
Visibility: 9 miles (14 km)
Ceiling: at least 12,000 feet AGL
Clouds: few clouds at 800 feet AGL
scattered clouds at 1600 feet AGL
Weather: no significant weather observed at this time

METAR text: CYLW 141658Z AUTO 36005KT 9SM FEW008 SCT016 M14/M16 A2968 RMK SLP088
Conditions at: CYLW (KELOWNA APT , BC, CA) observed 1658 UTC 14 February 2019
Temperature: -14.0°C ( 7°F)
Dewpoint: -16.0°C ( 3°F) [RH = 85%]
Pressure (altimeter): 29.68 inches Hg (1005.2 mb)
[Sea-level pressure: 1008.8 mb]
Winds: from the N (360 degrees) at 6 MPH (5 knots; 2.6 m/s)
Visibility: 9 miles (14 km)
Ceiling: at least 12,000 feet AGL
Clouds: few clouds at 800 feet AGL
scattered clouds at 1600 feet AGL
Weather: no significant weather observed at this time

Forecast for: AMD
Text: TAF AMD CYLW 160437Z 1604/1613 19005KT P6SM BKN009 OVC025
Forecast period: 0400 to 1300 UTC 16 February 2019
Forecast type: FROM: standard forecast or significant change
Winds: from the S (190 degrees) at 6 MPH (5 knots; 2.6 m/s)
Visibility: 6 or more miles 10+ km)
Ceiling: 900 feet AGL
Clouds: broken clouds at 900 feet AGL
overcast cloud deck at 2500 feet AGL
Weather: no significant weather forecast for this period
Text: TEMPO 1604/1613 SCT009 OVC030 RMK FCST BASED ON AUTO OBS. NXT FCST BY 160700Z
Forecast period: 0400 to 1300 UTC 16 February 2019
Forecast type: TEMPORARY: The following changes expected for less than half the time period
Visibility: missing
Ceiling: 3000 feet AGL
Clouds: scattered clouds at 900 feet AGL
overcast cloud deck at 3000 feet AGL
Weather: no significant weather forecast for this period